Nearby METAR Reports

 

EGNS - Isle Of Man/Rona, United Kingdom
Distance from station: SSW 16mi, 26km
Updated: 17/10/2021 18:50
Overcast
Overcast
 Wind from SW
Wind: SW 9 mph , 15 km/h
Temperature: 15°C
Dew Point: 14°C
Humidity: 94%
Barometer: 1012 hPa
Clouds: Overcast
Visibility: 6 miles , 10 km
Cloud details: Few Clouds 91 m
Mostly cloudy 640 m
Overcast 945 m
2021/10/17 17:50 EGNS 171750Z 23008KT 9999 FEW003 BKN021 OVC031 15/14 Q1012 NOSIG
EGAC - Belfast Harbour, United Kingdom
Distance from station: WNW 57mi, 92km
Updated: 17/10/2021 18:50
Overcast
Overcast
 Wind from S
Wind: S 6 mph , 9 km/h
Temperature: 14°C
Dew Point: 12°C
Humidity: 88%
Barometer: 1011 hPa
Clouds: Overcast
Visibility: 6 miles , 10 km
Cloud details: Overcast 488 m
2021/10/17 17:50 EGAC 171750Z AUTO 19005KT 160V220 9999 OVC016/// 14/12 Q1011
 
EGAA - Belfast/Aldergro, United Kingdom
Distance from station: WNW 71mi, 114km
Updated: 17/10/2021 18:50
Overcast
Overcast
 Wind from SSW
Wind: SSW 6 mph , 9 km/h
Temperature: 13°C
Dew Point: 12°C
Humidity: 94%
Barometer: 1011 hPa
Clouds: Overcast
Visibility: 6 miles , 10 km
Cloud details: Mostly cloudy 396 m
Overcast 640 m
2021/10/17 17:50 EGAA 171750Z AUTO 21005KT 9999 BKN013 OVC021 13/12 Q1011
EGNH - Blackpool Airpor, United Kingdom
Distance from station: ESE 73mi, 117km
Updated: 17/10/2021 18:50
Light rain, Drizzle, Mostly cloudy
Light rain, Drizzle, Mostly cloudy
 Wind from WSW
Wind: WSW 10 mph , 17 km/h
Temperature: 15°C
Dew Point: 14°C
Humidity: 94%
Barometer: 1013 hPa
Summary: Light rain, Drizzle
Clouds: Mostly cloudy
Visibility: 4 miles , 6 km
Cloud details: Mostly cloudy 335 m
2021/10/17 17:50 EGNH 171750Z 24009KT 6000 -RADZ BKN011 15/14 Q1013
 
EGOV - Valley Raf, United Kingdom
Distance from station: S 73mi, 118km
Updated: 17/10/2021 18:50
Mist, Overcast
Mist, Overcast
 Wind from SSW
Wind: SSW 23 mph , 37 km/h
Temperature: 15°C
Dew Point: 15°C
Humidity: 100%
Barometer: 1013 hPa
Summary: Mist
Clouds: Overcast
Visibility: 3 miles , 5 km
Cloud details: Overcast 61 m
2021/10/17 17:50 EGOV 171750Z AUTO 21020KT 4700 BR OVC002/// 15/15 Q1013 REDZ
EGNO - Wharton, United Kingdom
Distance from station: ESE 78mi, 125km
Updated: 15/10/2021 16:50
NOT Current
Few Clouds
Few Clouds
 Wind from varies
Wind: varies 3 mph , 6 km/h
Temperature: 12°C
Dew Point: 4°C
Humidity: 58%
Barometer: 1021 hPa
Clouds: Few Clouds
Visibility: 6 miles , 10 km
Cloud details: Few Clouds 1341 m
2021/10/15 15:50 EGNO 151550Z VRB03KT 9999 FEW044 12/04 Q1021
 
EGOW - Woodvale Raf, United Kingdom
Distance from station: SE 79mi, 127km
Updated: 15/10/2021 13:50
NOT Current
Few Clouds
Few Clouds
 Wind from ESE
Wind: ESE 8 mph , 13 km/h
Temperature: 15°C
Dew Point: 6°C
Humidity: 55%
Barometer: 1022 hPa
Clouds: Few Clouds
Visibility: 6 miles , 10 km
Cloud details: Few Clouds 1219 m
2021/10/15 12:50 EGOW 151250Z 11007KT 9999 FEW040 15/06 Q1022 RMK BLU
EGPK - Prestwick(Civ/Na, United Kingdom
Distance from station: N 82mi, 132km
Updated: 17/10/2021 18:50
Mostly cloudy
Mostly cloudy
 Wind from SE
Wind: SE 3 mph , 6 km/h
Temperature: 14°C
Dew Point: 13°C
Humidity: 94%
Barometer: 1011 hPa
Clouds: Mostly cloudy
Visibility: 6 miles , 10 km
Cloud details: Few Clouds 366 m
Partly cloudy 640 m
Mostly cloudy 762 m
2021/10/17 17:50 EGPK 171750Z 13003KT 100V170 9999 FEW012 SCT021 BKN025 14/13 Q1011
 
EGCK - Caernarfon, United Kingdom
Distance from station: S 84mi, 136km
Updated: 17/10/2021 18:50
Light rain, Overcast
Light rain, Overcast
 Wind from SSW
Wind: SSW 14 mph , 22 km/h
Temperature: 15°C
Dew Point: 14°C
Humidity: 94%
Barometer: 1013 hPa
Summary: Light rain
Clouds: Overcast
Visibility: 6 miles , 10 km
Cloud details: Overcast 183 m
2021/10/17 17:50 EGCK 171750Z AUTO 21012KT 9999 -RA OVC006/// 15/14 Q1013
EGEC - Campbeltown, United Kingdom
Distance from station: NNW 90mi, 144km
Updated: 02/10/2021 09:50
NOT Current
Clear
Clear
 Wind from SSE
Wind: SSE 8 mph , 13 km/h
Temperature: 10°C
Wind Chill: 8°C
Dew Point: 8°C
Humidity: 88%
Barometer: 990 hPa
Summary: Clear
Visibility: greater than 7 miles , 10 km
2021/10/02 08:50 EGEC 020850Z 15007KT CAVOK 10/08 Q0990
 
EIDW - Dublin Airport, Ireland
Distance from station: SW 93mi, 150km
Updated: 17/10/2021 19:00
Mostly cloudy
Mostly cloudy
 Wind from S
Wind: S 5 mph , 7 km/h
Temperature: 14°C
Dew Point: 12°C
Humidity: 88%
Barometer: 1012 hPa
Clouds: Mostly cloudy
Visibility: 6 miles , 10 km
Cloud details: Few Clouds 549 m
Mostly cloudy 945 m
2021/10/17 18:00 EIDW 171800Z 17004KT 9999 FEW018 BKN031 14/12 Q1012 NOSIG
EGOM - Spadeadam, United Kingdom
Distance from station: NE 95mi, 152km
Updated: 17/10/2021 18:50
Light drizzle, Mostly cloudy
Light drizzle, Mostly cloudy
 Wind from S
Wind: S 6 mph , 9 km/h
Temperature: 13°C
Dew Point: 13°C
Humidity: 100%
Barometer: 1012 hPa
Summary: Light Drizzle
Clouds: Mostly cloudy
Visibility: 1 mile , 2 km
Cloud details: Few Clouds 61 m
Mostly cloudy 274 m
2021/10/17 17:50 EGOM 171750Z AUTO 19005KT 1800 -DZ FEW002/// BKN009/// 13/13 Q1012
 
EGGP - Liverpool Airpor, United Kingdom
Distance from station: SE 98mi, 157km
Updated: 17/10/2021 18:50
Overcast
Overcast
 Wind from S
Wind: S 10 mph , 17 km/h
Temperature: 16°C
Dew Point: 14°C
Humidity: 88%
Barometer: 1014 hPa
Clouds: Overcast
Visibility: 6 miles , 10 km
Cloud details: Overcast 488 m
2021/10/17 17:50 EGGP 171750Z 18009KT 9999 OVC016 16/14 Q1014
Flag Counter
Free Website Hit Counter
Free website hit counter